createdAt,value
2018-03-29T00:00:19.140Z,14.33
2018-03-29T00:04:52.435Z,12.70
2018-03-29T00:09:25.703Z,13.17
2018-03-29T00:13:58.973Z,11.57
2018-03-29T00:18:32.261Z,11.63
2018-03-29T00:23:05.963Z,12.27
2018-03-29T00:27:39.595Z,12.73
2018-03-29T00:32:12.879Z,12.87
2018-03-29T00:36:46.904Z,13.10
2018-03-29T00:41:20.924Z,12.10
2018-03-29T00:45:54.994Z,12.00
2018-03-29T00:50:28.253Z,12.17
2018-03-29T00:55:01.976Z,14.40
2018-03-29T00:59:36.006Z,12.97
2018-03-29T01:04:10.048Z,15.17
2018-03-29T01:08:43.342Z,13.03
2018-03-29T01:13:17.384Z,15.07
2018-03-29T01:17:50.636Z,14.27
2018-03-29T01:22:23.904Z,16.77
2018-03-29T01:26:57.789Z,16.57
2018-03-29T01:31:31.058Z,15.50
2018-03-29T01:36:04.430Z,16.63
2018-03-29T01:40:38.472Z,17.87
2018-03-29T01:45:12.743Z,21.27
2018-03-29T01:49:46.097Z,19.77
2018-03-29T01:54:20.135Z,24.93
2018-03-29T01:58:53.692Z,23.00
2018-03-29T02:03:26.966Z,22.13
2018-03-29T02:08:00.353Z,21.97
2018-03-29T02:12:34.386Z,20.83
2018-03-29T02:17:08.383Z,22.07
2018-03-29T02:21:41.656Z,21.83
2018-03-29T02:26:14.881Z,24.67
2018-03-29T02:30:49.157Z,23.07
2018-03-29T02:35:23.190Z,20.50
2018-03-29T02:39:56.478Z,22.27
2018-03-29T02:44:30.521Z,22.10
2018-03-29T02:49:04.541Z,22.10
2018-03-29T02:53:38.556Z,18.37
2018-03-29T02:58:11.976Z,17.40
2018-03-29T03:02:46.118Z,21.97
2018-03-29T03:07:19.624Z,17.67
2018-03-29T03:11:53.647Z,18.90
2018-03-29T03:16:27.681Z,23.63
2018-03-29T03:21:01.687Z,19.43
2018-03-29T03:25:35.028Z,18.70
2018-03-29T03:30:08.343Z,16.77
2018-03-29T03:34:41.568Z,17.47
2018-03-29T03:39:15.455Z,19.67
2018-03-29T03:43:49.491Z,20.87
2018-03-29T03:48:22.801Z,17.27
2018-03-29T03:52:56.059Z,16.87
2018-03-29T03:57:30.141Z,17.17
2018-03-29T04:02:04.193Z,18.40
2018-03-29T04:06:37.478Z,18.67
2018-03-29T04:11:10.735Z,16.13
2018-03-29T04:15:44.082Z,17.77
2018-03-29T04:20:17.378Z,18.17
2018-03-29T04:24:51.420Z,17.90
2018-03-29T04:29:25.506Z,19.67
2018-03-29T04:33:58.773Z,20.83
2018-03-29T04:38:31.996Z,19.23
2018-03-29T04:43:06.082Z,17.40
2018-03-29T04:47:40.124Z,21.27
2018-03-29T04:52:13.416Z,22.63
2018-03-29T04:56:48.079Z,18.33
2018-03-29T05:01:21.411Z,22.07
2018-03-29T05:05:54.706Z,19.87
2018-03-29T05:10:28.084Z,20.80
2018-03-29T05:15:02.769Z,20.10
2018-03-29T05:19:36.058Z,17.80
2018-03-29T05:24:09.332Z,21.50
2018-03-29T05:28:42.817Z,21.27
2018-03-29T05:33:16.266Z,19.13
2018-03-29T05:37:50.345Z,21.40
2018-03-29T05:42:23.577Z,20.60
2018-03-29T05:46:56.880Z,21.10
2018-03-29T05:51:30.173Z,16.70
2018-03-29T05:56:03.442Z,20.10
2018-03-29T06:00:36.761Z,20.53
2018-03-29T06:05:10.047Z,20.87
2018-03-29T06:09:44.078Z,19.47
2018-03-29T06:14:18.093Z,18.10
2018-03-29T06:18:52.226Z,20.30
2018-03-29T06:23:26.248Z,38.17
2018-03-29T06:28:00.298Z,24.30
2018-03-29T06:32:33.896Z,27.20
2018-03-29T06:37:07.145Z,25.33
2018-03-29T06:41:40.442Z,29.37
2018-03-29T06:46:13.667Z,39.70
2018-03-29T06:50:46.974Z,40.30
2018-03-29T06:55:20.250Z,26.93
2018-03-29T06:59:53.503Z,25.37
2018-03-29T07:04:26.752Z,33.00
2018-03-29T07:09:00.051Z,17.37
2018-03-29T07:13:34.106Z,18.77
2018-03-29T07:18:07.488Z,20.50
2018-03-29T07:22:41.500Z,17.47
2018-03-29T07:27:14.770Z,16.40
2018-03-29T07:31:48.058Z,21.37
2018-03-29T07:36:21.281Z,17.90
2018-03-29T07:40:54.551Z,13.17
2018-03-29T07:45:28.691Z,21.53
2018-03-29T07:50:02.699Z,15.37
2018-03-29T07:54:36.783Z,14.27
2018-03-29T07:59:10.052Z,17.30
2018-03-29T08:03:44.089Z,13.10
2018-03-29T08:08:17.498Z,11.80
2018-03-29T08:12:50.764Z,16.40
2018-03-29T08:17:24.012Z,13.50
2018-03-29T08:21:57.292Z,11.70
2018-03-29T08:26:30.857Z,14.17
2018-03-29T08:31:04.139Z,11.50
2018-03-29T08:35:37.368Z,14.63
2018-03-29T08:40:10.745Z,14.87
2018-03-29T08:44:45.084Z,12.13
2018-03-29T08:49:19.102Z,11.77
2018-03-29T08:53:53.131Z,10.90
2018-03-29T08:58:27.115Z,10.10
2018-03-29T09:03:00.471Z,8.10
2018-03-29T09:07:33.739Z,13.85
2018-03-29T09:12:07.008Z,11.75
2018-03-29T09:16:40.252Z,12.10
2018-03-29T09:21:13.508Z,11.70
2018-03-29T09:25:47.626Z,10.33
2018-03-29T09:30:22.294Z,8.40
2018-03-29T09:34:55.676Z,10.57
2018-03-29T09:39:29.715Z,7.68
2018-03-29T09:44:03.114Z,9.25
2018-03-29T09:48:37.119Z,9.30
2018-03-29T09:53:10.380Z,9.35
2018-03-29T09:57:43.794Z,6.57
2018-03-29T10:02:18.874Z,6.87
2018-03-29T10:06:58.564Z,16.50
2018-03-29T10:11:32.632Z,6.93
2018-03-29T10:16:05.928Z,7.20
2018-03-29T10:20:39.345Z,7.77
2018-03-29T10:25:12.939Z,5.20
2018-03-29T10:29:46.190Z,11.10
2018-03-29T10:34:19.479Z,4.62
2018-03-29T10:38:52.715Z,8.82
2018-03-29T10:43:25.961Z,4.15
2018-03-29T10:48:00.060Z,4.28
2018-03-29T10:52:33.419Z,3.60
2018-03-29T10:57:06.685Z,6.47
2018-03-29T11:01:39.935Z,5.75
2018-03-29T11:06:13.174Z,7.87
2018-03-29T11:10:46.432Z,7.13
2018-03-29T11:15:20.597Z,8.20
2018-03-29T11:19:53.974Z,5.90
2018-03-29T11:24:27.997Z,8.03
2018-03-29T11:29:02.016Z,7.33
2018-03-29T11:33:35.280Z,23.03
2018-03-29T11:38:08.561Z,13.50
2018-03-29T11:42:41.861Z,7.33
2018-03-29T11:47:15.151Z,5.73
2018-03-29T11:51:49.183Z,6.80
2018-03-29T11:56:23.198Z,7.40
2018-03-29T12:00:57.433Z,7.63
2018-03-29T12:05:31.489Z,25.60
2018-03-29T12:10:04.836Z,24.80
2018-03-29T12:14:38.097Z,32.00
2018-03-29T12:19:11.368Z,8.90
2018-03-29T12:23:45.437Z,9.20
2018-03-29T12:28:18.728Z,10.80
2018-03-29T12:32:52.961Z,10.30
2018-03-29T12:37:27.000Z,7.43
2018-03-29T12:42:00.299Z,7.53
2018-03-29T12:46:35.095Z,6.93
2018-03-29T12:51:09.145Z,7.33
2018-03-29T12:55:43.192Z,7.82
2018-03-29T13:00:17.232Z,7.40
2018-03-29T13:04:50.526Z,6.32
2018-03-29T13:09:24.752Z,7.40
2018-03-29T13:13:58.802Z,5.97
2018-03-29T13:18:32.088Z,7.78
2018-03-29T13:23:06.159Z,12.50
2018-03-29T13:27:39.584Z,20.65
2018-03-29T13:32:13.120Z,11.07
2018-03-29T13:36:46.605Z,8.20
2018-03-29T13:41:20.192Z,9.77
2018-03-29T13:45:53.441Z,6.90
2018-03-29T13:50:26.701Z,5.07
2018-03-29T13:54:59.923Z,5.07
2018-03-29T13:59:33.203Z,5.20
2018-03-29T14:04:07.235Z,4.62
2018-03-29T14:08:41.355Z,4.85
2018-03-29T14:13:15.347Z,3.78
2018-03-29T14:17:49.436Z,3.92
2018-03-29T14:22:22.717Z,7.75
2018-03-29T14:26:56.745Z,4.35
2018-03-29T14:31:30.781Z,4.50
2018-03-29T14:36:04.210Z,4.10
2018-03-29T14:40:37.529Z,5.30
2018-03-29T14:45:11.333Z,6.75
2018-03-29T14:49:44.974Z,7.40
2018-03-29T14:54:18.258Z,5.07
2018-03-29T14:58:51.512Z,6.87
2018-03-29T15:03:24.772Z,5.73
2018-03-29T15:07:58.078Z,6.10
2018-03-29T15:12:31.301Z,6.23
2018-03-29T15:17:04.560Z,4.83
2018-03-29T15:21:37.812Z,5.97
2018-03-29T15:26:11.032Z,5.10
2018-03-29T15:30:44.292Z,7.30
2018-03-29T15:35:18.536Z,7.63
2018-03-29T15:39:52.065Z,5.37
2018-03-29T15:44:25.291Z,5.97
2018-03-29T15:48:58.682Z,6.10
2018-03-29T15:53:32.642Z,5.47
2018-03-29T15:58:05.910Z,4.90
2018-03-29T16:02:39.937Z,4.57
2018-03-29T16:07:14.084Z,7.27
2018-03-29T16:11:47.383Z,20.63
2018-03-29T16:16:20.705Z,5.17
2018-03-29T16:20:53.947Z,7.10
2018-03-29T16:25:27.182Z,6.63
2018-03-29T16:30:01.193Z,5.53
2018-03-29T16:34:34.421Z,5.70
2018-03-29T16:39:08.545Z,5.30
2018-03-29T16:43:42.815Z,11.03
2018-03-29T16:48:16.080Z,6.03
2018-03-29T16:52:50.195Z,7.87
2018-03-29T16:57:24.239Z,5.57
2018-03-29T17:01:58.234Z,8.53
2018-03-29T17:06:31.489Z,6.57
2018-03-29T17:11:04.775Z,8.37
2018-03-29T17:15:38.911Z,5.63
2018-03-29T17:20:12.972Z,5.47
2018-03-29T17:24:46.246Z,5.23
2018-03-29T17:29:20.679Z,7.90
2018-03-29T17:33:54.814Z,5.27
2018-03-29T17:38:28.848Z,9.50
2018-03-29T17:43:02.063Z,7.53
2018-03-29T17:47:36.068Z,5.50
2018-03-29T17:52:10.050Z,7.50
2018-03-29T17:56:43.284Z,6.03
2018-03-29T18:01:16.623Z,8.50
2018-03-29T18:05:50.037Z,6.00
2018-03-29T18:10:23.344Z,6.53
2018-03-29T18:14:56.656Z,10.17
2018-03-29T18:19:29.900Z,12.50
2018-03-29T18:24:03.376Z,22.47
2018-03-29T18:28:36.688Z,28.83
2018-03-29T18:33:09.997Z,36.47
2018-03-29T18:37:43.252Z,50.70
2018-03-29T18:42:16.608Z,32.57
2018-03-29T18:46:50.524Z,14.80
2018-03-29T18:51:24.566Z,18.60
2018-03-29T18:55:57.837Z,14.73
2018-03-29T19:00:31.105Z,14.07
2018-03-29T19:05:04.368Z,13.90
2018-03-29T19:09:37.638Z,19.87
2018-03-29T19:14:11.745Z,23.53
2018-03-29T19:18:45.031Z,20.43
2018-03-29T19:23:18.323Z,10.20
2018-03-29T19:27:52.375Z,15.10
2018-03-29T19:32:25.641Z,30.07
2018-03-29T19:36:59.633Z,26.77
2018-03-29T19:41:32.893Z,14.13
2018-03-29T19:46:07.019Z,14.10
2018-03-29T19:50:42.097Z,18.60
2018-03-29T19:55:15.358Z,26.23
2018-03-29T19:59:49.864Z,36.60
2018-03-29T20:04:23.836Z,34.83
2018-03-29T20:08:57.869Z,18.53
2018-03-29T20:13:32.097Z,23.37
2018-03-29T20:18:06.206Z,19.43
2018-03-29T20:22:39.455Z,17.17
2018-03-29T20:27:17.534Z,23.10
2018-03-29T20:31:51.360Z,19.73
2018-03-29T20:36:25.372Z,21.73
2018-03-29T20:40:58.712Z,19.43
2018-03-29T20:45:32.841Z,19.13
2018-03-29T20:50:06.961Z,18.10
2018-03-29T20:54:41.014Z,22.17
2018-03-29T20:59:14.296Z,16.70
2018-03-29T21:03:48.313Z,20.30
2018-03-29T21:08:21.757Z,23.00
2018-03-29T21:12:55.055Z,23.30
2018-03-29T21:17:29.253Z,16.00
2018-03-29T21:22:02.500Z,15.83
2018-03-29T21:26:35.783Z,29.17
2018-03-29T21:31:09.323Z,21.00
2018-03-29T21:35:42.922Z,45.27
2018-03-29T21:40:16.947Z,26.17
2018-03-29T21:44:50.984Z,36.77
2018-03-29T21:49:25.107Z,22.30
2018-03-29T21:53:59.119Z,26.50
2018-03-29T21:58:33.198Z,23.60
2018-03-29T22:03:06.452Z,27.87
2018-03-29T22:07:40.488Z,31.87
2018-03-29T22:12:14.604Z,84.17
2018-03-29T22:16:47.851Z,38.03
2018-03-29T22:21:21.157Z,26.77
2018-03-29T22:25:54.510Z,24.33
2018-03-29T22:30:28.166Z,18.97
2018-03-29T22:35:02.192Z,34.57
2018-03-29T22:39:36.319Z,35.23
2018-03-29T22:44:10.343Z,25.53
2018-03-29T22:48:44.473Z,20.83
2018-03-29T22:53:18.601Z,24.37
2018-03-29T22:57:52.628Z,17.13
2018-03-29T23:02:26.656Z,18.17
2018-03-29T23:07:00.780Z,12.60
2018-03-29T23:11:34.908Z,16.40
2018-03-29T23:16:08.943Z,20.33
2018-03-29T23:20:43.163Z,29.00
2018-03-29T23:25:17.286Z,31.53
2018-03-29T23:29:51.619Z,17.03
2018-03-29T23:34:25.683Z,17.03
2018-03-29T23:38:58.935Z,15.77
2018-03-29T23:43:34.856Z,16.67
2018-03-29T23:48:08.139Z,13.93
2018-03-29T23:52:42.411Z,13.23
2018-03-29T23:57:15.635Z,14.77
